Time;durP1;ratioP1;P1;durP2;ratioP2;P2;SDS_P1;SDS_P2;PMS_P1;PMS_P2;Temp;Humidity;BMP_temperature;BMP_pressure;BME280_temperature;BME280_humidity;BME280_pressure;Samples;Min_cycle;Max_cycle;Signal;HPM_P1;HPM_P2
2023/02/28 00:00:00;;;;;;;;;;;;;;;;;;5115523;28;19959;-70
2023/02/28 00:02:26;;;;;;;;;;;;;;;;;;5115659;28;20040;-71
2023/02/28 00:05:00;;;;;;;;;;;;;;;;;;5115387;28;19954;-70
2023/02/28 00:07:26;;;;;;;;;;;;;;;;;;5115944;28;20492;-71
2023/02/28 00:09:52;;;;;;;;;;;;;;;;;;5115302;28;19996;-71
2023/02/28 00:12:18;;;;;;;;;;;;;;;;;;5115508;28;19982;-72
2023/02/28 00:14:44;;;;;;;;;;;;;;;;;;5115106;28;20335;-71
2023/02/28 00:17:10;;;;;;;;;;;;;;;;;;5115160;28;19954;-70
2023/02/28 00:19:36;;;;;;;;;;;;;;;;;;5115411;28;19997;-71
2023/02/28 00:22:02;;;;;;;;;;;;;;;;;;5115045;28;20044;-71
2023/02/28 00:24:28;;;;;;;;;;;;;;;;;;5114936;28;20023;-72
2023/02/28 00:26:53;;;;;;;;;;;;;;;;;;5114674;28;19952;-71
2023/02/28 00:29:19;;;;;;;;;;;;;;;;;;5115178;28;20317;-71
2023/02/28 00:31:45;;;;;;;;;;;;;;;;;;5114871;28;19954;-70
2023/02/28 00:34:11;;;;;;;;;;;;;;;;;;5096502;28;20003;-71
2023/02/28 00:36:37;;;;;;;;;;;;;;;;;;5114780;28;19999;-71
2023/02/28 00:39:03;;;;;;;;;;;;;;;;;;5114470;28;19982;-71
2023/02/28 00:41:29;;;;;;;;;;;;;;;;;;5115366;28;19953;-71
2023/02/28 00:43:55;;;;;;;;;;;;;;;;;;5096377;28;20029;-72
2023/02/28 00:46:21;;;;;;;;;;;;;;;;;;5114685;28;19955;-72
2023/02/28 00:48:47;;;;;;;;;;;;;;;;;;5114608;28;19954;-71
2023/02/28 00:51:13;;;;;;;;;;;;;;;;;;5115138;28;20363;-72
2023/02/28 00:53:39;;;;;;;;;;;;;;;;;;5114497;28;19953;-71
2023/02/28 00:56:05;;;;;;;;;;;;;;;;;;5115056;28;20305;-71
2023/02/28 00:58:30;;;;;;;;;;;;;;;;;;5114436;28;19950;-72
2023/02/28 01:00:56;;;;;;;;;;;;;;;;;;5114691;28;19959;-71
2023/02/28 01:03:22;;;;;;;;;;;;;;;;;;5114328;28;20454;-71
2023/02/28 01:05:48;;;;;;;;;;;;;;;;;;5114937;28;19951;-71
2023/02/28 01:08:14;;;;;;;;;;;;;;;;;;5114327;28;19957;-71
2023/02/28 01:10:40;;;;;;;;;;;;;;;;;;5114592;28;19960;-71
2023/02/28 01:13:06;;;;;;;;;;;;;;;;;;5114173;28;19972;-71
2023/02/28 01:15:32;;;;;;;;;;;;;;;;;;5114290;28;19957;-70
2023/02/28 01:17:58;;;;;;;;;;;;;;;;;;5114302;28;19952;-70
2023/02/28 01:20:24;;;;;;;;;;;;;;;;;;5114217;28;20449;-71
2023/02/28 01:22:49;;;;;;;;;;;;;;;;;;5114357;28;20069;-71
2023/02/28 01:25:15;;;;;;;;;;;;;;;;;;5114134;28;20359;-71
2023/02/28 01:27:41;;;;;;;;;;;;;;;;;;5114095;28;19952;-72
2023/02/28 01:30:07;;;;;;;;;;;;;;;;;;5114375;28;19953;-70
2023/02/28 01:32:33;;;;;;;;;;;;;;;;;;5114051;28;20000;-71
2023/02/28 01:34:59;;;;;;;;;;;;;;;;;;5114598;28;19954;-70
2023/02/28 01:37:25;;;;;;;;;;;;;;;;;;5114039;28;19956;-72
2023/02/28 01:39:51;;;;;;;;;;;;;;;;;;5117275;28;20483;-71
2023/02/28 01:42:17;;;;;;;;;;;;;;;;;;5118154;28;19974;-71
2023/02/28 01:44:43;;;;;;;;;;;;;;;;;;5118081;28;19982;-71
2023/02/28 01:47:08;;;;;;;;;;;;;;;;;;5118136;28;19952;-72
2023/02/28 01:49:34;;;;;;;;;;;;;;;;;;5118312;28;20046;-71
2023/02/28 01:52:00;;;;;;;;;;;;;;;;;;5118001;28;20434;-71
2023/02/28 01:54:26;;;;;;;;;;;;;;;;;;5117970;28;19958;-71
2023/02/28 01:56:52;;;;;;;;;;;;;;;;;;5117816;28;20418;-71
2023/02/28 01:59:18;;;;;;;;;;;;;;;;;;5117867;28;19989;-72
2023/02/28 02:01:44;;;;;;;;;;;;;;;;;;5118396;28;20003;-70
2023/02/28 02:04:10;;;;;;;;;;;;;;;;;;5117697;28;19977;-72
2023/02/28 02:06:35;;;;;;;;;;;;;;;;;;5117706;28;19989;-71
2023/02/28 02:09:02;;;;;;;;;;;;;;;;;;5117941;28;19961;-70
2023/02/28 02:11:29;;;;;;;;;;;;;;;;;;5118691;28;19959;-70
2023/02/28 02:13:55;;;;;;;;;;;;;;;;;;5117514;28;20023;-70
2023/02/28 02:16:21;;;;;;;;;;;;;;;;;;5117536;28;19955;-71
2023/02/28 02:18:47;;;;;;;;;;;;;;;;;;5117499;28;19954;-71
2023/02/28 02:21:13;;;;;;;;;;;;;;;;;;5117438;28;19980;-71
2023/02/28 02:23:38;;;;;;;;;;;;;;;;;;5117851;28;20415;-71
2023/02/28 02:26:04;;;;;;;;;;;;;;;;;;5117636;28;20007;-70
2023/02/28 02:28:30;;;;;;;;;;;;;;;;;;5117284;28;20445;-72
2023/02/28 02:30:56;;;;;;;;;;;;;;;;;;5117262;28;19953;-71
2023/02/28 02:33:22;;;;;;;;;;;;;;;;;;5117246;28;20406;-71
2023/02/28 02:35:48;;;;;;;;;;;;;;;;;;5117224;28;19958;-71
2023/02/28 02:38:14;;;;;;;;;;;;;;;;;;5117426;28;19954;-71
2023/02/28 02:40:40;;;;;;;;;;;;;;;;;;5116898;28;19989;-72
2023/02/28 02:43:05;;;;;;;;;;;;;;;;;;5098661;28;19984;-70
2023/02/28 02:45:35;;;;;;;;;;;;;;;;;;5116994;28;20474;-71
2023/02/28 02:48:01;;;;;;;;;;;;;;;;;;5116960;28;20329;-72
2023/02/28 02:50:27;;;;;;;;;;;;;;;;;;5116996;28;19961;-71
2023/02/28 02:52:53;;;;;;;;;;;;;;;;;;5117096;28;19998;-71
2023/02/28 02:55:19;;;;;;;;;;;;;;;;;;5116802;28;19961;-71
2023/02/28 02:57:45;;;;;;;;;;;;;;;;;;5117030;28;19962;-70
2023/02/28 03:00:11;;;;;;;;;;;;;;;;;;5116690;28;20008;-70
2023/02/28 03:02:36;;;;;;;;;;;;;;;;;;5116572;28;20313;-71
2023/02/28 03:05:02;;;;;;;;;;;;;;;;;;5116626;28;19955;-71
2023/02/28 03:07:28;;;;;;;;;;;;;;;;;;5116837;28;20033;-71
2023/02/28 03:09:55;;;;;;;;;;;;;;;;;;5116517;28;20406;-70
2023/02/28 03:12:21;;;;;;;;;;;;;;;;;;5116839;28;19952;-71
2023/02/28 03:14:47;;;;;;;;;;;;;;;;;;5116358;28;20060;-71
2023/02/28 03:17:13;;;;;;;;;;;;;;;;;;5116663;28;20352;-71
2023/02/28 03:19:39;;;;;;;;;;;;;;;;;;5116332;28;19952;-70
2023/02/28 03:22:05;;;;;;;;;;;;;;;;;;5116266;28;20303;-70
2023/02/28 03:24:31;;;;;;;;;;;;;;;;;;5116152;28;19972;-71
2023/02/28 03:26:56;;;;;;;;;;;;;;;;;;5116462;28;19959;-71
2023/02/28 03:29:22;;;;;;;;;;;;;;;;;;5116116;28;20445;-70
2023/02/28 03:31:49;;;;;;;;;;;;;;;;;;5116085;28;19953;-71
2023/02/28 03:34:15;;;;;;;;;;;;;;;;;;5097720;28;20325;-71
2023/02/28 03:36:43;;;;;;;;;;;;;;;;;;5116550;28;20042;-71
2023/02/28 03:39:09;;;;;;;;;;;;;;;;;;5115733;28;19953;-71
2023/02/28 03:41:35;;;;;;;;;;;;;;;;;;5116226;28;20007;-72
2023/02/28 03:44:01;;;;;;;;;;;;;;;;;;5116044;28;20043;-71
2023/02/28 03:46:27;;;;;;;;;;;;;;;;;;5115770;28;19960;-71
2023/02/28 03:48:53;;;;;;;;;;;;;;;;;;5115733;28;19993;-71
2023/02/28 03:51:19;;;;;;;;;;;;;;;;;;5116007;28;19951;-72
2023/02/28 03:53:44;;;;;;;;;;;;;;;;;;5115636;28;19955;-71
2023/02/28 03:56:10;;;;;;;;;;;;;;;;;;5097325;28;19955;-70
2023/02/28 03:58:36;;;;;;;;;;;;;;;;;;5115543;28;20488;-71
2023/02/28 04:01:07;;;;;;;;;;;;;;;;;;5115171;28;20138;-71
2023/02/28 04:03:33;;;;;;;;;;;;;;;;;;5115838;28;20512;-70
2023/02/28 04:05:59;;;;;;;;;;;;;;;;;;5115635;28;20008;-70
2023/02/28 04:08:25;;;;;;;;;;;;;;;;;;5115335;28;19962;-71
2023/02/28 04:10:51;;;;;;;;;;;;;;;;;;5115380;28;19953;-71
2023/02/28 04:13:17;;;;;;;;;;;;;;;;;;5115460;28;19953;-71
2023/02/28 04:15:43;;;;;;;;;;;;;;;;;;5115225;28;19980;-71
2023/02/28 04:18:09;;;;;;;;;;;;;;;;;;5115194;28;19959;-71
2023/02/28 04:20:34;;;;;;;;;;;;;;;;;;5115709;28;19956;-72
2023/02/28 04:23:00;;;;;;;;;;;;;;;;;;5115285;28;19980;-71
2023/02/28 04:25:26;;;;;;;;;;;;;;;;;;5115325;28;19962;-72
2023/02/28 04:27:52;;;;;;;;;;;;;;;;;;5115286;28;20047;-70
2023/02/28 04:30:18;;;;;;;;;;;;;;;;;;5114964;28;19960;-71
2023/02/28 04:32:44;;;;;;;;;;;;;;;;;;5115245;28;19960;-71
2023/02/28 04:35:10;;;;;;;;;;;;;;;;;;5114853;28;20408;-71
2023/02/28 04:37:36;;;;;;;;;;;;;;;;;;5115359;28;19960;-71
2023/02/28 04:40:02;;;;;;;;;;;;;;;;;;5114503;28;19988;-70
2023/02/28 04:42:35;;;;;;;;;;;;;;;;;;5114715;28;20051;-72
2023/02/28 04:45:01;;;;;;;;;;;;;;;;;;5114400;28;20060;-71
2023/02/28 04:47:26;;;;;;;;;;;;;;;;;;5114941;28;19993;-71
2023/02/28 04:49:53;;;;;;;;;;;;;;;;;;5114623;28;20320;-70
2023/02/28 04:52:19;;;;;;;;;;;;;;;;;;5096079;28;19958;-70
2023/02/28 04:54:45;;;;;;;;;;;;;;;;;;5114535;28;20378;-71
2023/02/28 04:57:11;;;;;;;;;;;;;;;;;;5114707;28;19958;-70
2023/02/28 04:59:37;;;;;;;;;;;;;;;;;;5114467;28;19990;-71
2023/02/28 05:02:06;;;;;;;;;;;;;;;;;;5114690;28;19958;-70
2023/02/28 05:04:33;;;;;;;;;;;;;;;;;;5114289;28;19981;-69
2023/02/28 05:06:59;;;;;;;;;;;;;;;;;;5114599;28;19953;-71
2023/02/28 05:09:25;;;;;;;;;;;;;;;;;;5114302;28;20035;-69
2023/02/28 05:11:51;;;;;;;;;;;;;;;;;;5114583;28;20312;-70
2023/02/28 05:14:17;;;;;;;;;;;;;;;;;;5113204;28;20017;-71
2023/02/28 05:16:43;;;;;;;;;;;;;;;;;;5114481;28;19952;-70
2023/02/28 05:19:09;;;;;;;;;;;;;;;;;;5114469;28;19985;-71
2023/02/28 05:21:35;;;;;;;;;;;;;;;;;;5114147;28;19964;-71
2023/02/28 05:24:00;;;;;;;;;;;;;;;;;;5114114;28;19976;-71
2023/02/28 05:26:27;;;;;;;;;;;;;;;;;;5114128;28;19961;-72
2023/02/28 05:28:53;;;;;;;;;;;;;;;;;;5114019;28;19957;-71
2023/02/28 05:31:19;;;;;;;;;;;;;;;;;;5114410;28;19952;-71
2023/02/28 05:33:45;;;;;;;;;;;;;;;;;;5114058;28;20328;-71
2023/02/28 05:36:11;;;;;;;;;;;;;;;;;;5114310;28;19955;-71
2023/02/28 05:38:36;;;;;;;;;;;;;;;;;;5114017;28;20326;-71
2023/02/28 05:41:02;;;;;;;;;;;;;;;;;;5113830;28;19990;-71
2023/02/28 05:43:28;;;;;;;;;;;;;;;;;;5113869;28;19974;-72
2023/02/28 05:45:54;;;;;;;;;;;;;;;;;;5113914;28;20000;-71
2023/02/28 05:48:20;;;;;;;;;;;;;;;;;;5114481;28;19954;-71
2023/02/28 05:50:46;;;;;;;;;;;;;;;;;;5114168;28;20001;-72
2023/02/28 05:53:12;;;;;;;;;;;;;;;;;;5113930;28;19960;-69
2023/02/28 05:55:39;;;;;;;;;;;;;;;;;;5114142;28;19951;-71
2023/02/28 05:58:04;;;;;;;;;;;;;;;;;;5113806;28;19994;-71
2023/02/28 06:00:30;;;;;;;;;;;;;;;;;;5113814;28;19961;-71
2023/02/28 06:02:59;;;;;;;;;;;;;;;;;;5113959;28;20075;-69
2023/02/28 06:05:25;;;;;;;;;;;;;;;;;;5113967;28;20026;-72
2023/02/28 06:07:51;;;;;;;;;;;;;;;;;;5114307;28;20459;-71
2023/02/28 06:10:17;;;;;;;;;;;;;;;;;;5113714;28;19957;-72
2023/02/28 06:12:43;;;;;;;;;;;;;;;;;;5113967;28;20056;-71
2023/02/28 06:15:09;;;;;;;;;;;;;;;;;;5113607;28;20347;-71
2023/02/28 06:17:35;;;;;;;;;;;;;;;;;;5114245;28;20286;-71
2023/02/28 06:20:00;;;;;;;;;;;;;;;;;;5113972;28;20037;-71
2023/02/28 06:22:26;;;;;;;;;;;;;;;;;;5113614;28;19953;-72
2023/02/28 06:24:52;;;;;;;;;;;;;;;;;;5114519;28;19977;-71
2023/02/28 06:27:20;;;;;;;;;;;;;;;;;;5117406;28;19953;-71
2023/02/28 06:29:47;;;;;;;;;;;;;;;;;;5117606;28;19994;-71
2023/02/28 06:32:12;;;;;;;;;;;;;;;;;;5117652;28;19954;-71
2023/02/28 06:34:38;;;;;;;;;;;;;;;;;;5117280;28;20401;-70
2023/02/28 06:37:04;;;;;;;;;;;;;;;;;;5117174;28;19952;-71
2023/02/28 06:39:30;;;;;;;;;;;;;;;;;;5117356;28;20407;-71
2023/02/28 06:41:56;;;;;;;;;;;;;;;;;;5117306;28;20045;-71
2023/02/28 06:44:22;;;;;;;;;;;;;;;;;;5116895;28;20022;-70
2023/02/28 06:46:48;;;;;;;;;;;;;;;;;;5116972;28;19995;-71
2023/02/28 06:49:14;;;;;;;;;;;;;;;;;;5117217;28;19958;-71
2023/02/28 06:51:41;;;;;;;;;;;;;;;;;;5116941;28;19954;-71
2023/02/28 06:54:09;;;;;;;;;;;;;;;;;;5116817;28;19974;-72
2023/02/28 06:56:35;;;;;;;;;;;;;;;;;;5117242;28;19956;-71
2023/02/28 06:59:01;;;;;;;;;;;;;;;;;;5116781;28;19992;-71
2023/02/28 07:01:27;;;;;;;;;;;;;;;;;;5116957;28;19960;-72
2023/02/28 07:03:53;;;;;;;;;;;;;;;;;;5117216;28;20367;-71
2023/02/28 07:06:19;;;;;;;;;;;;;;;;;;5116794;28;19963;-71
2023/02/28 07:08:45;;;;;;;;;;;;;;;;;;5116499;28;19958;-71
2023/02/28 07:11:11;;;;;;;;;;;;;;;;;;5116465;28;19952;-70
2023/02/28 07:13:37;;;;;;;;;;;;;;;;;;5116401;28;19971;-71
2023/02/28 07:16:03;;;;;;;;;;;;;;;;;;5116608;28;20018;-70
2023/02/28 07:18:29;;;;;;;;;;;;;;;;;;5116311;28;19953;-70
2023/02/28 07:20:55;;;;;;;;;;;;;;;;;;5116871;28;19957;-71
2023/02/28 07:23:21;;;;;;;;;;;;;;;;;;5116144;28;20017;-71
2023/02/28 07:25:47;;;;;;;;;;;;;;;;;;5116443;28;19952;-71
2023/02/28 07:28:13;;;;;;;;;;;;;;;;;;5116140;28;19952;-71
2023/02/28 07:30:39;;;;;;;;;;;;;;;;;;5116689;28;20462;-70
2023/02/28 07:33:04;;;;;;;;;;;;;;;;;;5116349;28;19956;-71
2023/02/28 07:35:30;;;;;;;;;;;;;;;;;;5116252;28;19954;-71
2023/02/28 07:37:56;;;;;;;;;;;;;;;;;;5115000;28;19996;-70
2023/02/28 07:40:22;;;;;;;;;;;;;;;;;;5115707;28;20038;-71
2023/02/28 07:42:48;;;;;;;;;;;;;;;;;;5116110;28;19952;-70
2023/02/28 07:45:14;;;;;;;;;;;;;;;;;;5116104;28;20402;-71
2023/02/28 07:47:40;;;;;;;;;;;;;;;;;;5115800;28;19953;-72
2023/02/28 07:50:06;;;;;;;;;;;;;;;;;;5116029;28;19959;-71
2023/02/28 07:52:32;;;;;;;;;;;;;;;;;;5116151;28;19952;-71
2023/02/28 07:54:58;;;;;;;;;;;;;;;;;;5111596;28;20059;-69
2023/02/28 07:57:24;;;;;;;;;;;;;;;;;;5095154;28;20407;-71
2023/02/28 07:59:49;;;;;;;;;;;;;;;;;;5095173;28;19962;-68
2023/02/28 08:02:15;;;;;;;;;;;;;;;;;;5104317;28;20373;-73
2023/02/28 08:04:41;;;;;;;;;;;;;;;;;;5114281;28;20082;-72
2023/02/28 08:07:07;;;;;;;;;;;;;;;;;;5114335;28;19968;-72
2023/02/28 08:09:34;;;;;;;;;;;;;;;;;;5114506;28;20005;-71
2023/02/28 08:12:00;;;;;;;;;;;;;;;;;;5114470;28;20381;-73
2023/02/28 08:14:25;;;;;;;;;;;;;;;;;;5115216;28;20064;-74
2023/02/28 08:16:51;;;;;;;;;;;;;;;;;;5115203;28;19954;-70
2023/02/28 08:19:18;;;;;;;;;;;;;;;;;;5115757;28;20001;-72
2023/02/28 08:21:44;;;;;;;;;;;;;;;;;;5115931;28;19949;-71
2023/02/28 08:24:10;;;;;;;;;;;;;;;;;;5115547;28;19978;-72
2023/02/28 08:26:36;;;;;;;;;;;;;;;;;;5112493;28;20332;-69
2023/02/28 08:29:02;;;;;;;;;;;;;;;;;;5115028;28;19953;-71
2023/02/28 08:31:28;;;;;;;;;;;;;;;;;;5111410;28;20305;-71
2023/02/28 08:33:56;;;;;;;;;;;;;;;;;;5114155;28;19959;-69
2023/02/28 08:36:22;;;;;;;;;;;;;;;;;;5115095;28;19960;-71
2023/02/28 08:38:48;;;;;;;;;;;;;;;;;;5114111;28;20052;-68
2023/02/28 08:41:14;;;;;;;;;;;;;;;;;;5113823;28;20386;-70
2023/02/28 08:43:40;;;;;;;;;;;;;;;;;;5114822;28;20032;-69
2023/02/28 08:46:06;;;;;;;;;;;;;;;;;;5114637;28;20026;-69
2023/02/28 08:48:32;;;;;;;;;;;;;;;;;;5114886;28;19954;-69
2023/02/28 08:50:57;;;;;;;;;;;;;;;;;;5114598;28;19948;-69
2023/02/28 08:53:24;;;;;;;;;;;;;;;;;;5114632;28;20000;-68
2023/02/28 08:55:49;;;;;;;;;;;;;;;;;;5113712;28;19987;-68
2023/02/28 08:58:15;;;;;;;;;;;;;;;;;;5114746;28;20049;-67
2023/02/28 09:00:41;;;;;;;;;;;;;;;;;;5094468;28;20017;-70
2023/02/28 09:03:07;;;;;;;;;;;;;;;;;;5094218;28;19970;-67
2023/02/28 09:05:33;;;;;;;;;;;;;;;;;;5111285;28;19967;-69
2023/02/28 09:07:59;;;;;;;;;;;;;;;;;;5115109;28;20045;-69
2023/02/28 09:10:25;;;;;;;;;;;;;;;;;;5113444;28;19964;-71
2023/02/28 09:12:52;;;;;;;;;;;;;;;;;;5114638;28;19957;-71
2023/02/28 09:15:18;;;;;;;;;;;;;;;;;;5095825;28;20449;-71
2023/02/28 09:17:44;;;;;;;;;;;;;;;;;;5114652;28;20018;-70
2023/02/28 09:20:10;;;;;;;;;;;;;;;;;;5114202;28;19988;-74
2023/02/28 09:22:36;;;;;;;;;;;;;;;;;;5114350;28;19951;-74
2023/02/28 09:25:02;;;;;;;;;;;;;;;;;;5113131;28;20458;-71
2023/02/28 09:27:28;;;;;;;;;;;;;;;;;;5114094;28;19989;-70
2023/02/28 09:29:54;;;;;;;;;;;;;;;;;;5111749;28;19980;-69
2023/02/28 09:32:20;;;;;;;;;;;;;;;;;;5094228;28;19959;-70
2023/02/28 09:34:46;;;;;;;;;;;;;;;;;;5112221;28;19959;-68
2023/02/28 09:37:11;;;;;;;;;;;;;;;;;;5113272;28;19960;-71
2023/02/28 09:39:37;;;;;;;;;;;;;;;;;;5113720;28;20058;-71
2023/02/28 09:42:03;;;;;;;;;;;;;;;;;;5113085;28;19956;-70
2023/02/28 09:44:29;;;;;;;;;;;;;;;;;;5113859;28;19972;-70
2023/02/28 09:46:55;;;;;;;;;;;;;;;;;;5114490;28;20369;-69
2023/02/28 09:49:21;;;;;;;;;;;;;;;;;;5113918;28;19947;-70
2023/02/28 09:51:48;;;;;;;;;;;;;;;;;;5095394;28;19980;-70
2023/02/28 09:54:18;;;;;;;;;;;;;;;;;;5114044;28;19959;-69
2023/02/28 09:56:44;;;;;;;;;;;;;;;;;;5112455;28;19960;-72
2023/02/28 09:59:10;;;;;;;;;;;;;;;;;;5113418;28;20060;-69
2023/02/28 10:01:36;;;;;;;;;;;;;;;;;;5115291;28;20041;-71
2023/02/28 10:04:02;;;;;;;;;;;;;;;;;;5116818;28;20471;-70
2023/02/28 10:06:27;;;;;;;;;;;;;;;;;;5116766;28;19961;-70
2023/02/28 10:08:53;;;;;;;;;;;;;;;;;;5118235;28;20284;-69
2023/02/28 10:11:20;;;;;;;;;;;;;;;;;;5117997;28;19975;-69
2023/02/28 10:13:46;;;;;;;;;;;;;;;;;;5117549;28;19995;-68
2023/02/28 10:16:12;;;;;;;;;;;;;;;;;;5116129;28;19958;-72
2023/02/28 10:18:38;;;;;;;;;;;;;;;;;;5118018;28;19952;-73
2023/02/28 10:21:04;;;;;;;;;;;;;;;;;;5117794;28;19951;-71
2023/02/28 10:23:30;;;;;;;;;;;;;;;;;;5117545;28;20021;-74
2023/02/28 10:25:56;;;;;;;;;;;;;;;;;;5116881;28;19962;-73
2023/02/28 10:28:21;;;;;;;;;;;;;;;;;;5115514;28;19964;-74
2023/02/28 10:30:47;;;;;;;;;;;;;;;;;;5116076;28;19958;-74
2023/02/28 10:33:13;;;;;;;;;;;;;;;;;;5116102;28;20459;-73
2023/02/28 10:35:39;;;;;;;;;;;;;;;;;;5113981;28;20007;-71
2023/02/28 10:38:05;;;;;;;;;;;;;;;;;;5117187;28;20296;-69
2023/02/28 10:40:31;;;;;;;;;;;;;;;;;;5116260;28;19985;-70
2023/02/28 10:42:57;;;;;;;;;;;;;;;;;;5117049;28;19959;-71
2023/02/28 10:45:23;;;;;;;;;;;;;;;;;;5117322;28;19952;-68
2023/02/28 10:47:49;;;;;;;;;;;;;;;;;;5115443;28;19968;-69
2023/02/28 10:50:14;;;;;;;;;;;;;;;;;;5116889;28;20433;-68
2023/02/28 10:52:40;;;;;;;;;;;;;;;;;;5115938;28;19989;-67
2023/02/28 10:55:06;;;;;;;;;;;;;;;;;;5117079;28;20418;-68
2023/02/28 10:57:32;;;;;;;;;;;;;;;;;;5117097;28;19954;-68
2023/02/28 10:59:58;;;;;;;;;;;;;;;;;;5116752;28;20423;-68
2023/02/28 11:02:24;;;;;;;;;;;;;;;;;;5115158;28;20004;-69
2023/02/28 11:04:50;;;;;;;;;;;;;;;;;;5113994;28;20524;-73
2023/02/28 11:07:16;;;;;;;;;;;;;;;;;;5097415;28;19956;-69
2023/02/28 11:09:44;;;;;;;;;;;;;;;;;;5112425;28;19958;-71
2023/02/28 11:12:09;;;;;;;;;;;;;;;;;;5112747;28;19962;-72
2023/02/28 11:14:35;;;;;;;;;;;;;;;;;;5115799;28;20361;-70
2023/02/28 11:17:01;;;;;;;;;;;;;;;;;;5114930;28;19959;-70
2023/02/28 11:19:27;;;;;;;;;;;;;;;;;;5116362;28;20384;-72
2023/02/28 11:21:53;;;;;;;;;;;;;;;;;;5114331;28;19962;-71
2023/02/28 11:24:19;;;;;;;;;;;;;;;;;;5113111;28;20486;-68
2023/02/28 11:26:45;;;;;;;;;;;;;;;;;;5114334;28;19995;-67
2023/02/28 11:29:11;;;;;;;;;;;;;;;;;;5107154;28;20391;-66
2023/02/28 11:31:37;;;;;;;;;;;;;;;;;;5095665;28;19958;-66
2023/02/28 11:34:02;;;;;;;;;;;;;;;;;;5093785;28;20008;-67
2023/02/28 11:36:28;;;;;;;;;;;;;;;;;;5093254;28;19960;-67
2023/02/28 11:38:54;;;;;;;;;;;;;;;;;;5094212;28;19986;-67
2023/02/28 11:41:20;;;;;;;;;;;;;;;;;;5094593;28;19988;-67
2023/02/28 11:43:46;;;;;;;;;;;;;;;;;;5094675;28;19978;-67
2023/02/28 11:46:12;;;;;;;;;;;;;;;;;;5094841;28;19959;-67
2023/02/28 11:48:38;;;;;;;;;;;;;;;;;;5095432;28;19955;-68
2023/02/28 11:51:04;;;;;;;;;;;;;;;;;;5095359;28;20039;-67
2023/02/28 11:53:30;;;;;;;;;;;;;;;;;;5095626;28;19959;-67
2023/02/28 11:55:56;;;;;;;;;;;;;;;;;;5095308;28;20046;-67
2023/02/28 11:58:21;;;;;;;;;;;;;;;;;;5095555;28;20481;-68
2023/02/28 12:00:47;;;;;;;;;;;;;;;;;;5095777;28;20043;-68
2023/02/28 12:03:13;;;;;;;;;;;;;;;;;;5095386;28;19972;-67
2023/02/28 12:05:39;;;;;;;;;;;;;;;;;;5095141;28;20047;-67
2023/02/28 12:08:05;;;;;;;;;;;;;;;;;;5095146;28;19965;-67
2023/02/28 12:10:31;;;;;;;;;;;;;;;;;;5095589;28;19952;-67
2023/02/28 12:12:58;;;;;;;;;;;;;;;;;;5095271;28;20039;-67
2023/02/28 12:15:24;;;;;;;;;;;;;;;;;;5094883;28;20512;-68
2023/02/28 12:17:49;;;;;;;;;;;;;;;;;;5094888;28;19989;-67
2023/02/28 12:20:15;;;;;;;;;;;;;;;;;;5095091;28;19964;-67
2023/02/28 12:22:41;;;;;;;;;;;;;;;;;;5094308;28;20400;-67
2023/02/28 12:25:07;;;;;;;;;;;;;;;;;;5094982;28;19985;-67
2023/02/28 12:27:33;;;;;;;;;;;;;;;;;;5094718;28;20049;-67
2023/02/28 12:30:00;;;;;;;;;;;;;;;;;;5094897;28;20301;-68
2023/02/28 12:32:26;;;;;;;;;;;;;;;;;;5094692;28;19952;-67
2023/02/28 12:34:52;;;;;;;;;;;;;;;;;;5094882;28;19953;-67
2023/02/28 12:37:18;;;;;;;;;;;;;;;;;;5094519;28;19999;-67
2023/02/28 12:39:44;;;;;;;;;;;;;;;;;;5094672;28;20423;-67
2023/02/28 12:42:10;;;;;;;;;;;;;;;;;;5094724;28;19952;-67
2023/02/28 12:44:35;;;;;;;;;;;;;;;;;;5094564;28;19973;-68
2023/02/28 12:47:01;;;;;;;;;;;;;;;;;;5094368;28;19961;-68
2023/02/28 12:49:27;;;;;;;;;;;;;;;;;;5094586;28;19954;-66
2023/02/28 12:51:53;;;;;;;;;;;;;;;;;;5094625;28;19953;-67
2023/02/28 12:54:19;;;;;;;;;;;;;;;;;;5094514;28;19960;-67
2023/02/28 12:56:45;;;;;;;;;;;;;;;;;;5094474;28;20446;-68
2023/02/28 12:59:11;;;;;;;;;;;;;;;;;;5094725;28;19954;-66
2023/02/28 13:01:37;;;;;;;;;;;;;;;;;;5094138;28;19958;-67
2023/02/28 13:04:03;;;;;;;;;;;;;;;;;;5094016;28;20335;-67
2023/02/28 13:06:29;;;;;;;;;;;;;;;;;;5094363;28;19951;-67
2023/02/28 13:08:54;;;;;;;;;;;;;;;;;;5094031;28;19952;-68
2023/02/28 13:11:20;;;;;;;;;;;;;;;;;;5093997;28;20006;-67
2023/02/28 13:13:46;;;;;;;;;;;;;;;;;;5094133;28;19979;-68
2023/02/28 13:16:12;;;;;;;;;;;;;;;;;;5075826;28;20347;-68
2023/02/28 13:18:39;;;;;;;;;;;;;;;;;;5093877;28;19954;-68
2023/02/28 13:21:05;;;;;;;;;;;;;;;;;;5094163;28;19964;-67
2023/02/28 13:23:31;;;;;;;;;;;;;;;;;;5093760;28;20050;-67
2023/02/28 13:25:59;;;;;;;;;;;;;;;;;;5093831;28;19958;-67
2023/02/28 13:28:24;;;;;;;;;;;;;;;;;;5094072;28;19976;-67
2023/02/28 13:30:50;;;;;;;;;;;;;;;;;;5094021;28;19958;-68
2023/02/28 13:33:18;;;;;;;;;;;;;;;;;;5094272;28;20024;-67
2023/02/28 13:35:44;;;;;;;;;;;;;;;;;;5096581;28;19950;-67
2023/02/28 13:38:12;;;;;;;;;;;;;;;;;;5098542;28;19959;-67
2023/02/28 13:40:38;;;;;;;;;;;;;;;;;;5079571;28;20454;-67
2023/02/28 13:43:04;;;;;;;;;;;;;;;;;;5097802;28;19960;-67
2023/02/28 13:45:30;;;;;;;;;;;;;;;;;;5098017;28;19955;-67
2023/02/28 13:47:56;;;;;;;;;;;;;;;;;;5097385;28;19958;-67
2023/02/28 13:50:22;;;;;;;;;;;;;;;;;;5097749;28;19960;-67
2023/02/28 13:52:47;;;;;;;;;;;;;;;;;;5096980;28;20337;-68
2023/02/28 13:55:15;;;;;;;;;;;;;;;;;;5097045;28;19959;-67
2023/02/28 13:57:41;;;;;;;;;;;;;;;;;;5096923;28;19953;-67
2023/02/28 14:00:07;;;;;;;;;;;;;;;;;;5097268;28;20425;-67
2023/02/28 14:02:33;;;;;;;;;;;;;;;;;;5097294;28;20441;-68
2023/02/28 14:05:00;;;;;;;;;;;;;;;;;;5097266;28;19973;-67
2023/02/28 14:07:26;;;;;;;;;;;;;;;;;;5097202;28;20462;-67
2023/02/28 14:09:52;;;;;;;;;;;;;;;;;;5097377;28;19949;-67
2023/02/28 14:12:17;;;;;;;;;;;;;;;;;;5097303;28;20010;-66
2023/02/28 14:14:43;;;;;;;;;;;;;;;;;;5097405;28;20355;-67
2023/02/28 14:17:09;;;;;;;;;;;;;;;;;;5097490;28;19955;-67
2023/02/28 14:19:35;;;;;;;;;;;;;;;;;;5097198;28;20021;-66
2023/02/28 14:22:01;;;;;;;;;;;;;;;;;;5097401;28;20006;-67
2023/02/28 14:24:27;;;;;;;;;;;;;;;;;;5096997;28;19970;-67
2023/02/28 14:26:53;;;;;;;;;;;;;;;;;;5097079;28;19954;-68
2023/02/28 14:29:19;;;;;;;;;;;;;;;;;;5097042;28;19955;-67
2023/02/28 14:31:45;;;;;;;;;;;;;;;;;;5097191;28;20040;-68
2023/02/28 14:34:11;;;;;;;;;;;;;;;;;;5096888;28;19992;-66
2023/02/28 14:36:37;;;;;;;;;;;;;;;;;;5096866;28;19958;-66
2023/02/28 14:39:03;;;;;;;;;;;;;;;;;;5096881;28;19956;-67
2023/02/28 14:41:29;;;;;;;;;;;;;;;;;;5096764;28;20003;-67
2023/02/28 14:43:55;;;;;;;;;;;;;;;;;;5096928;28;19972;-67
2023/02/28 14:46:21;;;;;;;;;;;;;;;;;;5096220;28;20439;-66
2023/02/28 14:48:47;;;;;;;;;;;;;;;;;;5096932;28;19954;-67
2023/02/28 14:51:13;;;;;;;;;;;;;;;;;;5096879;28;20403;-67
2023/02/28 14:53:38;;;;;;;;;;;;;;;;;;5097103;28;19988;-67
2023/02/28 14:56:04;;;;;;;;;;;;;;;;;;5096409;28;19958;-67
2023/02/28 14:58:30;;;;;;;;;;;;;;;;;;5097009;28;19959;-67
2023/02/28 15:00:56;;;;;;;;;;;;;;;;;;5096405;28;19954;-66
2023/02/28 15:03:22;;;;;;;;;;;;;;;;;;5096533;28;19974;-67
2023/02/28 15:05:48;;;;;;;;;;;;;;;;;;5096228;28;19960;-67
2023/02/28 15:08:14;;;;;;;;;;;;;;;;;;5096194;28;20295;-67
2023/02/28 15:10:40;;;;;;;;;;;;;;;;;;5096172;28;19961;-68
2023/02/28 15:13:06;;;;;;;;;;;;;;;;;;5096393;28;19957;-68
2023/02/28 15:15:32;;;;;;;;;;;;;;;;;;5096397;28;19964;-67
2023/02/28 15:17:58;;;;;;;;;;;;;;;;;;5096071;28;19953;-67
2023/02/28 15:20:23;;;;;;;;;;;;;;;;;;5096050;28;20336;-67
2023/02/28 15:22:49;;;;;;;;;;;;;;;;;;5096518;28;20398;-68
2023/02/28 15:25:15;;;;;;;;;;;;;;;;;;5096172;28;20454;-68
2023/02/28 15:27:41;;;;;;;;;;;;;;;;;;5096168;28;19951;-68
2023/02/28 15:30:07;;;;;;;;;;;;;;;;;;5095817;28;19953;-68
2023/02/28 15:32:33;;;;;;;;;;;;;;;;;;5096345;28;19958;-67
2023/02/28 15:34:59;;;;;;;;;;;;;;;;;;5095736;28;20000;-66
2023/02/28 15:37:25;;;;;;;;;;;;;;;;;;5095971;28;19953;-66
2023/02/28 15:39:51;;;;;;;;;;;;;;;;;;5095468;28;20411;-67
2023/02/28 15:42:17;;;;;;;;;;;;;;;;;;5095609;28;19957;-67
2023/02/28 15:44:42;;;;;;;;;;;;;;;;;;5095524;28;19970;-68
2023/02/28 15:47:09;;;;;;;;;;;;;;;;;;5095493;28;20066;-67
2023/02/28 15:49:35;;;;;;;;;;;;;;;;;;5095754;28;19956;-67
2023/02/28 15:52:01;;;;;;;;;;;;;;;;;;5095400;28;19987;-67
2023/02/28 15:54:27;;;;;;;;;;;;;;;;;;5095371;28;20005;-67
2023/02/28 15:56:53;;;;;;;;;;;;;;;;;;5095205;28;20004;-67
2023/02/28 15:59:19;;;;;;;;;;;;;;;;;;5095107;28;19952;-67
2023/02/28 16:01:45;;;;;;;;;;;;;;;;;;5095495;28;19968;-67
2023/02/28 16:04:11;;;;;;;;;;;;;;;;;;5095672;28;19977;-67
2023/02/28 16:06:37;;;;;;;;;;;;;;;;;;5095378;28;20041;-67
2023/02/28 16:09:03;;;;;;;;;;;;;;;;;;5095094;28;20436;-68
2023/02/28 16:11:30;;;;;;;;;;;;;;;;;;5095294;28;19951;-66
2023/02/28 16:13:56;;;;;;;;;;;;;;;;;;5095726;28;19974;-68
2023/02/28 16:16:22;;;;;;;;;;;;;;;;;;5095230;28;20003;-67
2023/02/28 16:18:47;;;;;;;;;;;;;;;;;;5094907;28;20361;-67
2023/02/28 16:21:13;;;;;;;;;;;;;;;;;;5094850;28;19959;-67
2023/02/28 16:23:39;;;;;;;;;;;;;;;;;;5094697;28;20018;-68
2023/02/28 16:26:05;;;;;;;;;;;;;;;;;;5094728;28;19956;-68
2023/02/28 16:28:32;;;;;;;;;;;;;;;;;;5094930;28;20042;-67
2023/02/28 16:30:58;;;;;;;;;;;;;;;;;;5094642;28;19960;-67
2023/02/28 16:33:24;;;;;;;;;;;;;;;;;;5094605;28;19996;-67
2023/02/28 16:35:50;;;;;;;;;;;;;;;;;;5094565;28;20043;-67